createdAt,value
2018-08-23T00:04:41.744Z,101043.68
2018-08-23T00:09:34.487Z,101048.97
2018-08-23T00:14:26.961Z,101046.38
2018-08-23T00:19:19.465Z,101035.83
2018-08-23T00:24:17.235Z,101036.22
2018-08-23T00:29:12.240Z,101029.39
2018-08-23T00:34:04.675Z,101030.88
2018-08-23T00:38:57.172Z,101025.52
2018-08-23T00:43:49.652Z,101026.05
2018-08-23T00:48:42.621Z,101020.51
2018-08-23T00:53:36.405Z,101027.50
2018-08-23T00:58:28.831Z,101017.81
2018-08-23T01:03:21.339Z,101017.64
2018-08-23T01:08:18.416Z,101015.77
2018-08-23T01:13:10.904Z,101012.27
2018-08-23T01:18:14.882Z,101013.11
2018-08-23T01:23:07.327Z,101010.21
2018-08-23T01:27:59.843Z,101009.13
2018-08-23T01:32:52.322Z,100998.48
2018-08-23T01:37:44.790Z,100993.28
2018-08-23T01:42:38.378Z,100992.48
2018-08-23T01:47:39.358Z,100981.86
2018-08-23T01:52:31.832Z,100977.20
2018-08-23T01:57:29.104Z,100979.14
2018-08-23T02:02:21.601Z,100979.14
2018-08-23T02:07:14.082Z,100977.53
2018-08-23T02:12:06.693Z,100968.30
2018-08-23T02:16:59.209Z,100971.58
2018-08-23T02:21:51.613Z,100964.78
2018-08-23T02:26:44.108Z,100964.59
2018-08-23T02:31:36.617Z,100958.59
2018-08-23T02:36:29.117Z,100952.06
2018-08-23T02:41:21.537Z,100955.95
2018-08-23T02:46:14.056Z,100949.70
2018-08-23T02:51:06.503Z,100949.78
2018-08-23T02:56:10.763Z,100949.01
2018-08-23T03:01:04.845Z,100945.24
2018-08-23T03:05:57.308Z,100943.34
2018-08-23T03:10:49.751Z,100943.06
2018-08-23T03:15:42.967Z,100943.62
2018-08-23T03:20:35.804Z,100947.29
2018-08-23T03:25:28.274Z,100938.58
2018-08-23T03:30:21.343Z,100938.11
2018-08-23T03:35:13.801Z,100938.19
2018-08-23T03:40:07.250Z,100935.23
2018-08-23T03:45:00.016Z,100939.91
2018-08-23T03:49:52.636Z,100936.11
2018-08-23T03:54:56.502Z,100932.85
2018-08-23T03:59:50.750Z,100931.00
2018-08-23T04:04:44.808Z,100937.58
2018-08-23T04:09:37.260Z,100933.54
2018-08-23T04:14:29.729Z,100934.92
2018-08-23T04:19:22.290Z,100933.30
2018-08-23T04:24:14.793Z,100937.39
2018-08-23T04:29:07.236Z,100936.58
2018-08-23T04:34:03.678Z,100928.09
2018-08-23T04:39:07.513Z,100931.37
2018-08-23T04:44:02.762Z,100936.56
2018-08-23T04:48:55.235Z,100931.93
2018-08-23T04:53:47.740Z,100926.19
2018-08-23T04:58:40.849Z,100931.36
2018-08-23T05:03:33.506Z,100928.34
2018-08-23T05:08:26.001Z,100926.11
2018-08-23T05:13:18.472Z,100922.28
2018-08-23T05:18:10.973Z,100923.09
2018-08-23T05:23:04.265Z,100915.95
2018-08-23T05:28:14.792Z,100906.61
2018-08-23T05:33:13.129Z,100903.55
2018-08-23T05:38:07.841Z,100899.67
2018-08-23T05:43:00.303Z,100900.91
2018-08-23T05:47:52.899Z,100897.49
2018-08-23T05:52:45.340Z,100896.50
2018-08-23T05:57:37.949Z,100891.17
2018-08-23T06:02:30.412Z,100883.45
2018-08-23T06:07:22.968Z,100879.50
2018-08-23T06:12:15.525Z,100880.23
2018-08-23T06:17:07.998Z,100874.97
2018-08-23T06:22:00.545Z,100871.33
2018-08-23T06:26:53.047Z,100868.73
2018-08-23T06:31:59.462Z,100866.72
2018-08-23T06:36:52.771Z,100863.02
2018-08-23T06:41:45.384Z,100859.44
2018-08-23T06:46:38.014Z,100863.64
2018-08-23T06:51:30.494Z,100858.62
2018-08-23T06:56:23.321Z,100857.77
2018-08-23T07:01:33.899Z,100851.84
2018-08-23T07:06:26.515Z,100849.30
2018-08-23T07:11:21.529Z,100842.78
2018-08-23T07:16:14.117Z,100843.50
2018-08-23T07:21:06.693Z,100850.97
2018-08-23T07:25:59.346Z,100840.58
2018-08-23T07:30:53.187Z,100845.02
2018-08-23T07:35:46.161Z,100849.31
2018-08-23T07:40:38.706Z,100849.53
2018-08-23T07:45:31.195Z,100861.31
2018-08-23T07:50:23.647Z,100861.08
2018-08-23T07:55:16.231Z,100853.56
2018-08-23T08:00:24.183Z,100849.39
2018-08-23T08:05:16.720Z,100847.70
2018-08-23T08:10:13.891Z,100837.55
2018-08-23T08:15:09.913Z,100840.66
2018-08-23T08:20:04.913Z,100847.91
2018-08-23T08:25:02.312Z,100849.90
2018-08-23T08:29:54.808Z,100847.66
2018-08-23T08:34:47.428Z,100839.01
2018-08-23T08:39:40.196Z,100832.57
2018-08-23T08:44:32.740Z,100827.48
2018-08-23T08:49:25.594Z,100825.73
2018-08-23T08:54:18.089Z,100822.31
2018-08-23T08:59:10.876Z,100819.16
2018-08-23T09:04:03.642Z,100803.54
2018-08-23T09:08:56.183Z,100805.55
2018-08-23T09:13:49.202Z,100790.97
2018-08-23T09:18:43.145Z,100794.67
2018-08-23T09:23:35.602Z,100786.41
2018-08-23T09:28:28.096Z,100781.14
2018-08-23T09:33:24.975Z,100774.63
2018-08-23T09:38:17.509Z,100760.95
2018-08-23T09:43:10.151Z,100764.42
2018-08-23T09:48:02.837Z,100748.83
2018-08-23T09:52:55.385Z,100746.88
2018-08-23T09:57:47.932Z,100733.62
2018-08-23T10:02:46.162Z,100727.77
2018-08-23T10:07:44.592Z,100718.11
2018-08-23T10:12:42.737Z,100712.81
2018-08-23T10:17:41.074Z,100714.83
2018-08-23T10:22:38.259Z,100701.48
2018-08-23T10:27:30.716Z,100693.80
2018-08-23T10:32:23.301Z,100697.63
2018-08-23T10:37:15.723Z,100691.63
2018-08-23T10:42:14.549Z,100696.03
2018-08-23T10:47:06.987Z,100679.03
2018-08-23T10:51:59.475Z,100666.69
2018-08-23T10:56:51.932Z,100667.14
2018-08-23T11:01:45.237Z,100659.75
2018-08-23T11:06:43.395Z,100651.36
2018-08-23T11:11:36.894Z,100653.06
2018-08-23T11:16:35.265Z,100643.33
2018-08-23T11:21:28.073Z,100644.55
2018-08-23T11:26:22.154Z,100631.41
2018-08-23T11:31:20.541Z,100630.16
2018-08-23T11:36:13.046Z,100618.10
2018-08-23T11:41:05.581Z,100616.44
2018-08-23T11:46:04.125Z,100604.23
2018-08-23T11:50:56.731Z,100594.14
2018-08-23T11:55:49.158Z,100591.27
2018-08-23T12:00:41.724Z,100574.36
2018-08-23T12:05:34.308Z,100575.20
2018-08-23T12:10:27.059Z,100556.13
2018-08-23T12:15:28.806Z,100556.30
2018-08-23T12:20:21.267Z,100551.38
2018-08-23T12:25:56.822Z,100541.98
2018-08-23T12:30:49.613Z,100527.66
2018-08-23T12:35:42.168Z,100530.06
2018-08-23T12:40:40.426Z,100520.93
2018-08-23T12:45:35.759Z,100518.23
2018-08-23T12:50:28.399Z,100515.48
2018-08-23T12:55:21.131Z,100508.92
2018-08-23T13:00:13.629Z,100505.36
2018-08-23T13:05:06.149Z,100489.17
2018-08-23T13:09:58.662Z,100484.40
2018-08-23T13:14:51.232Z,100484.41
2018-08-23T13:19:44.021Z,100472.06
2018-08-23T13:24:42.315Z,100475.67
2018-08-23T13:29:36.082Z,100456.70
2018-08-23T13:34:28.615Z,100457.49
2018-08-23T13:39:21.254Z,100440.69
2018-08-23T13:44:13.807Z,100436.08
2018-08-23T13:49:06.386Z,100433.45
2018-08-23T13:53:58.980Z,100427.02
2018-08-23T13:58:53.630Z,100427.25
2018-08-23T14:03:46.124Z,100415.28
2018-08-23T14:08:38.630Z,100412.48
2018-08-23T14:13:31.550Z,100404.45
2018-08-23T14:18:24.196Z,100397.66
2018-08-23T14:23:16.697Z,100391.09
2018-08-23T14:28:09.189Z,100380.70
2018-08-23T14:33:01.706Z,100380.86
2018-08-23T14:37:54.244Z,100376.13
2018-08-23T14:42:46.861Z,100368.94
2018-08-23T14:47:45.257Z,100365.37
2018-08-23T14:52:37.735Z,100347.75
2018-08-23T14:57:31.297Z,100353.91
2018-08-23T15:02:23.876Z,100351.70
2018-08-23T15:07:16.832Z,100338.52
2018-08-23T15:12:09.418Z,100334.95
2018-08-23T15:17:01.927Z,100338.95
2018-08-23T15:21:54.620Z,100334.75
2018-08-23T15:26:47.847Z,100334.11
2018-08-23T15:31:41.583Z,100331.95
2018-08-23T15:36:34.128Z,100335.95
2018-08-23T15:41:26.756Z,100332.16
2018-08-23T15:46:19.247Z,100324.95
2018-08-23T15:51:11.753Z,100330.12
2018-08-23T15:56:04.628Z,100333.35
2018-08-23T16:00:57.173Z,100322.56
2018-08-23T16:05:49.797Z,100321.40
2018-08-23T16:10:42.527Z,100316.17
2018-08-23T16:15:34.963Z,100315.17
2018-08-23T16:20:33.854Z,100312.24
2018-08-23T16:25:26.391Z,100319.21
2018-08-23T16:30:19.172Z,100320.52
2018-08-23T16:35:11.647Z,100315.14
2018-08-23T16:40:04.194Z,100316.38
2018-08-23T16:44:56.927Z,100310.61
2018-08-23T16:49:49.391Z,100307.22
2018-08-23T16:54:41.858Z,100306.41
2018-08-23T16:59:34.315Z,100296.46
2018-08-23T17:04:32.475Z,100302.63
2018-08-23T17:09:25.053Z,100301.80
2018-08-23T17:14:17.667Z,100300.98
2018-08-23T17:19:10.157Z,100302.56
2018-08-23T17:24:02.680Z,100299.75
2018-08-23T17:28:55.282Z,100303.74
2018-08-23T17:33:47.944Z,100305.30
2018-08-23T17:38:40.535Z,100315.45
2018-08-23T17:43:33.084Z,100325.98
2018-08-23T17:48:25.592Z,100329.11
2018-08-23T17:53:18.257Z,100334.25
2018-08-23T17:58:11.015Z,100335.17
2018-08-23T18:03:03.582Z,100336.69
2018-08-23T18:07:56.104Z,100357.35
2018-08-23T18:12:48.737Z,100381.77
2018-08-23T18:17:41.470Z,100391.38
2018-08-23T18:22:34.315Z,100405.41
2018-08-23T18:27:26.750Z,100413.42
2018-08-23T18:32:19.345Z,100434.16
2018-08-23T18:37:12.018Z,100439.08
2018-08-23T18:42:04.813Z,100444.52
2018-08-23T18:46:57.409Z,100449.23
2018-08-23T18:51:50.427Z,100464.83
2018-08-23T18:56:42.866Z,100478.48
2018-08-23T19:01:35.300Z,100486.66
2018-08-23T19:06:34.395Z,100497.48
2018-08-23T19:11:27.085Z,100509.17
2018-08-23T19:16:25.382Z,100498.66
2018-08-23T19:21:17.937Z,100472.42
2018-08-23T19:26:10.582Z,100483.59
2018-08-23T19:31:03.227Z,100484.65
2018-08-23T19:35:55.725Z,100481.81
2018-08-23T19:40:48.208Z,100472.62
2018-08-23T19:45:46.427Z,100466.55
2018-08-23T19:50:39.086Z,100451.45
2018-08-23T19:55:31.627Z,100444.19
2018-08-23T20:00:24.221Z,100437.53
2018-08-23T20:05:16.787Z,100420.39
2018-08-23T20:10:09.268Z,100419.18
2018-08-23T20:15:01.789Z,100408.03
2018-08-23T20:19:54.604Z,100403.66
2018-08-23T20:24:47.201Z,100394.70
2018-08-23T20:29:39.812Z,100390.45
2018-08-23T20:34:32.304Z,100371.32
2018-08-23T20:39:25.007Z,100365.72
2018-08-23T20:44:17.344Z,100368.63
2018-08-23T20:49:10.254Z,100373.14
2018-08-23T20:54:02.859Z,100397.56
2018-08-23T20:58:55.811Z,100384.66
2018-08-23T21:03:48.385Z,100405.27
2018-08-23T21:08:40.870Z,100406.34
2018-08-23T21:13:33.584Z,100404.17
2018-08-23T21:18:26.066Z,100398.98
2018-08-23T21:23:18.511Z,100411.58
2018-08-23T21:28:10.950Z,100407.30
2018-08-23T21:33:03.481Z,100408.15
2018-08-23T21:37:56.020Z,100410.14
2018-08-23T21:42:48.468Z,100411.52
2018-08-23T21:47:41.038Z,100410.41
2018-08-23T21:52:33.656Z,100402.23
2018-08-23T21:57:26.166Z,100393.97
2018-08-23T22:02:19.134Z,100402.05
2018-08-23T22:07:11.840Z,100394.67
2018-08-23T22:12:04.368Z,100390.02
2018-08-23T22:16:56.830Z,100388.45
2018-08-23T22:21:49.510Z,100391.80
2018-08-23T22:26:42.085Z,100385.84
2018-08-23T22:31:34.461Z,100379.36
2018-08-23T22:36:27.015Z,100375.02
2018-08-23T22:41:19.499Z,100366.72
2018-08-23T22:46:12.006Z,100365.59
2018-08-23T22:51:04.736Z,100355.83
2018-08-23T22:55:57.255Z,100372.53
2018-08-23T23:00:49.672Z,100372.42
2018-08-23T23:05:42.537Z,100368.14
2018-08-23T23:10:35.524Z,100370.33
2018-08-23T23:15:27.973Z,100366.27
2018-08-23T23:20:20.467Z,100370.17
2018-08-23T23:25:12.995Z,100368.73
2018-08-23T23:30:06.086Z,100365.42
2018-08-23T23:34:58.587Z,100352.20
2018-08-23T23:39:51.123Z,100356.19
2018-08-23T23:44:43.697Z,100351.00
2018-08-23T23:49:36.139Z,100355.95
2018-08-23T23:54:28.578Z,100347.92
2018-08-23T23:59:22.541Z,100341.50
